M I D A S
Marine Information and Data Acquisition System
Tripno 1885 of the Zeeleeuw from 2010-05-21 06:58:12 to 2010-05-21 13:27:16
Back to CruiseResearch ActivitiesStationsMapUnderway DataData graphs

EquipmentUnitsComment
TimeDGPSUTC
LatitudeDGPSDM.mWGS84
LongitudeDGPSDM.mWGS84
TemperatureSBE03/SBE38deg celciusITS90
ConductivitySBE21S/mITS90
SalinitySBE21 Practical Salinity Units
ChlorophylAChelsea fluorimeterg/lCalibrated in Aceton
Missing or incorrect values are displayed as -999
Sea surface data collected by the RV Zeeleeuw from 2010-05-21 06:52:44 to 2010-05-21 13:36:57
Time Latitude Longitude Temperature Conductivity Salinity ChlorophylA
2010-05-21 06:53:53 51°13.677 2°55.889 20.3297 0.069011 0.353929 -1.000568
2010-05-21 06:54:53 51°13.698 2°55.789 20.3097 0.069011 0.353955 -1.000568
2010-05-21 06:55:51 51°13.706 2°55.726 20.3281 0.069011 0.353987 -1.000568
2010-05-21 06:56:50 51°13.716 2°55.731 20.228 0.069011 0.354008 -1.000568
2010-05-21 06:57:52 51°13.701 2°55.724 20.2679 0.069011 0.354029 -1.000568
2010-05-21 06:58:51 51°13.747 2°55.696 20.2352 0.069011 0.354049 -1.000568
2010-05-21 06:59:50 51°13.861 2°55.607 19.8556 0.069011 0.354112 -1.000568
2010-05-21 07:00:49 51°13.998 2°55.519 20.1348 0.069011 0.354144 -1.000568
2010-05-21 07:01:49 51°14.136 2°55.416 20.1232 0.069011 0.35417 -1.000568
2010-05-21 07:02:49 51°14.287 2°55.294 20.2167 0.069011 0.354196 -1.000568
2010-05-21 07:03:49 51°14.439 2°55.112 20.1028 0.069011 0.354201 -1.000568
2010-05-21 07:04:49 51°14.619 2°54.937 20.1356 0.069011 0.354238 -1.035392
2010-05-21 07:05:49 51°14.805 2°54.742 20.0897 0.069011 0.354243 -1.035392
2010-05-21 07:06:49 51°15 2°54.562 20.0267 0.068907 0.353698 -1.000568
2010-05-21 07:07:49 51°15.195 2°54.377 13.9501 0.451836 2.552087 0.113802
2010-05-21 07:08:49 51°15.367 2°54.146 13.161 3.716023 30.412239 3.422087
2010-05-21 07:09:49 51°15.548 2°53.929 12.9563 3.643796 30.304607 3.839975
2010-05-21 07:10:49 51°15.722 2°53.704 12.8874 3.630196 30.355391 3.422087
2010-05-21 07:11:49 51°15.896 2°53.483 12.7552 3.630303 30.455078 3.526559
2010-05-21 07:12:49 51°16.071 2°53.267 12.6976 3.631043 30.558245 2.551485
2010-05-21 07:13:49 51°16.257 2°53.072 12.6633 3.632414 30.615065 2.655957
2010-05-21 07:14:49 51°16.454 2°52.894 12.6286 3.622608 30.563488 3.317614
2010-05-21 07:15:49 51°16.656 2°52.726 12.6293 3.625245 30.612156 3.874799
2010-05-21 07:16:49 51°16.862 2°52.567 12.6142 3.623769 30.614086 3.700679
2010-05-21 07:17:49 51°17.067 2°52.403 12.4043 3.626194 30.655819 3.247966
2010-05-21 07:18:49 51°17.283 2°52.276 12.2853 3.643912 31.002821 3.317614
2010-05-21 07:19:49 51°17.512 2°52.201 12.2239 3.648975 31.143911 3.456911
2010-05-21 07:20:49 51°17.743 2°52.142 12.1956 3.645074 31.147832 3.247966
2010-05-21 07:21:49 51°17.977 2°52.16 12.1399 3.639802 31.132883 3.247966
2010-05-21 07:22:49 51°18.212 2°52.221 12.1129 3.631894 31.099348 3.456911
2010-05-21 07:23:49 51°18.449 2°52.273 12.1234 3.630207 31.102187 3.10867
2010-05-21 07:24:49 51°18.684 2°52.303 12.153 3.628731 31.089436 3.004198
2010-05-21 07:25:49 51°18.919 2°52.328 12.2836 3.627676 31.035168 2.725606
2010-05-21 07:26:49 51°19.154 2°52.352 12.3596 3.6243 30.900311 2.203245
2010-05-21 07:27:49 51°19.39 2°52.376 12.3788 3.619238 30.805501 1.82018
2010-05-21 07:28:49 51°19.627 2°52.404 12.3874 3.617762 30.781934 1.855004
2010-05-21 07:29:49 51°19.862 2°52.434 12.2924 3.618078 30.794533 1.855004
2010-05-21 07:30:49 51°20.097 2°52.461 12.2235 3.594354 30.639815 2.725606
2010-05-21 07:31:49 51°20.331 2°52.49 12.1196 3.598151 30.730255 3.909623
2010-05-21 07:32:49 51°20.565 2°52.519 12.0281 3.586343 30.710715 2.690782
2010-05-21 07:33:49 51°20.799 2°52.55 11.9964 3.577171 30.68722 1.855004
2010-05-21 07:34:49 51°21.033 2°52.58 11.978 3.576222 30.700127 2.098773
2010-05-21 07:35:49 51°21.269 2°52.617 12.0071 3.576539 30.719303 2.516661
2010-05-21 07:36:49 51°21.505 2°52.655 12.0476 3.578225 30.695329 2.133597
2010-05-21 07:37:49 51°21.742 2°52.693 11.9871 3.5758 30.665781 1.889828
2010-05-21 07:38:49 51°21.981 2°52.732 11.9635 3.574008 30.697752 1.855004
2010-05-21 07:39:49 51°22.219 2°52.772 11.9394 3.569896 30.666281 1.64606
2010-05-21 07:40:49 51°22.457 2°52.814 11.9466 3.572005 30.705154 1.47194
2010-05-21 07:41:49 51°22.697 2°52.857 12.0157 3.572216 30.687763 1.47194
2010-05-21 07:42:49 51°22.938 2°52.9 12.0565 3.567471 30.600616 1.297819
2010-05-21 07:43:49 51°23.178 2°52.941 11.9895 3.567681 30.578191 1.297819
2010-05-21 07:44:49 51°23.42 2°52.982 11.8918 3.570213 30.693219 1.228171
2010-05-21 07:45:49 51°23.662 2°53.028 11.8506 3.572322 30.770444 1.228171
2010-05-21 07:46:49 51°23.904 2°53.085 11.7596 3.570636 30.779669 1.193347
2010-05-21 07:47:49 51°24.146 2°53.139 11.7209 3.570426 30.838306 1.123699
2010-05-21 07:48:49 51°24.383 2°53.181 11.5085 3.589828 31.108234 1.054051
2010-05-21 07:49:49 51°24.62 2°53.22 11.4202 3.608282 31.428994 1.262995
2010-05-21 07:50:49 51°24.855 2°53.262 11.3793 3.607334 31.481051 1.332643
2010-05-21 07:51:49 51°25.092 2°53.301 11.3546 3.607967 31.51622 1.262995
2010-05-21 07:52:49 51°25.329 2°53.339 11.3303 3.609971 31.557325 1.193347
2010-05-21 07:53:49 51°25.566 2°53.379 11.3114 3.614716 31.627863 1.123699
2010-05-21 07:54:49 51°25.806 2°53.422 11.3246 3.615138 31.6442 0.984403
2010-05-21 07:55:49 51°26.047 2°53.469 11.3088 3.621465 31.709163 0.949579
2010-05-21 07:56:49 51°26.287 2°53.514 11.2891 3.62157 31.711552 0.53169
2010-05-21 07:57:49 51°26.526 2°53.562 11.2885 3.624734 31.761458 0.496866
2010-05-21 07:58:49 51°26.766 2°53.609 11.3186 3.621359 31.723138 0.392394
2010-05-21 07:59:49 51°27.007 2°53.657 11.3469 3.617247 31.652473 0.18345
2010-05-21 08:00:49 51°27.248 2°53.708 11.4012 3.616508 31.615414 0.18345
2010-05-21 08:01:49 51°27.489 2°53.755 11.4202 3.611868 31.537186 0.044153
2010-05-21 08:02:49 51°27.73 2°53.802 11.3618 3.614926 31.575657 0.148626
2010-05-21 08:03:49 51°27.972 2°53.847 11.3239 3.611236 31.56623 0.18345
2010-05-21 08:04:49 51°28.214 2°53.892 11.3066 3.612924 31.625379 0.392394
2010-05-21 08:05:49 51°28.455 2°53.938 11.3264 3.60955 31.595274 0.392394
2010-05-21 08:06:49 51°28.697 2°53.985 11.374 3.609233 31.564381 0.218274
2010-05-21 08:07:49 51°28.937 2°54.03 11.3169 3.615032 31.60989 0.18345
2010-05-21 08:08:48 51°29.172 2°54.074 11.2136 3.626315 31.763882 0.392394
2010-05-21 08:09:49 51°29.415 2°54.124 11.2315 3.632221 31.903712 0.775459
2010-05-21 08:10:49 51°29.655 2°54.178 11.2596 3.629163 31.847073 0.253098
2010-05-21 08:11:49 51°29.898 2°54.235 11.2474 3.624629 31.787783 0.078977
2010-05-21 08:12:49 51°30.141 2°54.292 11.3687 3.615033 31.685398 -0.164791
2010-05-21 08:13:49 51°30.383 2°54.35 11.3945 3.607862 31.512494 -0.129967
2010-05-21 08:14:49 51°30.625 2°54.407 11.4038 3.608916 31.513943 -0.164791
2010-05-21 08:15:48 51°30.864 2°54.461 11.3195 3.606174 31.486667 -0.129967
2010-05-21 08:16:49 51°31.111 2°54.508 11.1507 3.619883 31.692408 -0.199615
2010-05-21 08:17:49 51°31.354 2°54.552 11.0572 3.65405 32.177326 0.009329
2010-05-21 08:18:48 51°31.591 2°54.596 11.0352 3.658375 32.288066 0.078977
2010-05-21 08:19:49 51°31.837 2°54.641 11.0351 3.659113 32.310012 0.18345
2010-05-21 08:20:48 51°32.074 2°54.683 11.0403 3.659851 32.31726 0.18345
2010-05-21 08:21:48 51°32.315 2°54.723 11.017 3.662804 32.349063 0.287922
2010-05-21 08:22:48 51°32.545 2°54.757 11.0136 3.670186 32.436347 0.462042
2010-05-21 08:23:49 51°32.692 2°54.779 10.9926 3.675564 32.496269 0.462042
2010-05-21 08:24:48 51°32.79 2°54.802 10.9822 3.677357 32.534372 0.566514
2010-05-21 08:25:49 51°32.868 2°54.816 10.9832 3.677146 32.535829 0.496866
2010-05-21 08:26:48 51°32.928 2°54.822 10.9774 3.677251 32.536867 0.566514
2010-05-21 08:27:48 51°32.977 2°54.824 10.9681 3.677357 32.540025 0.636162
2010-05-21 08:28:47 51°33.018 2°54.826 10.9775 3.676091 32.532515 0.775459
2010-05-21 08:29:47 51°33.053 2°54.828 10.9735 3.677462 32.540356 0.740634
2010-05-21 08:30:49 51°33.084 2°54.83 10.9747 3.677462 32.547424 0.845107
2010-05-21 08:31:48 51°33.11 2°54.834 10.9891 3.677568 32.544221 0.914755
2010-05-21 08:32:49 51°33.135 2°54.837 10.9941 3.678095 32.54305 0.845107
2010-05-21 08:33:49 51°33.157 2°54.84 11.0015 3.677673 32.53466 0.879931
2010-05-21 08:34:49 51°33.177 2°54.844 11.0054 3.679782 32.545523 0.810283
2010-05-21 08:35:48 51°33.196 2°54.848 10.9982 3.680309 32.548592 0.949579
2010-05-21 08:36:48 51°33.214 2°54.853 10.99 3.679888 32.5508 1.088875
2010-05-21 08:37:48 51°33.231 2°54.856 10.9811 3.678517 32.543668 1.262995
2010-05-21 08:38:49 51°33.248 2°54.859 10.986 3.677251 32.537573 1.193347
2010-05-21 08:39:49 51°33.308 2°54.91 10.9945 3.678939 32.54782 1.193347
2010-05-21 08:40:49 51°33.318 2°55.109 10.9891 3.680309 32.559898 0.845107
2010-05-21 08:41:49 51°33.266 2°55.368 10.9974 3.677357 32.531547 0.566514
2010-05-21 08:42:49 51°33.204 2°55.611 10.9854 3.678306 32.538061 0.601338
2010-05-21 08:43:50 51°33.207 2°55.763 11.0023 3.675248 32.516441 0.70581
2010-05-21 08:44:48 51°33.221 2°55.833 11.0032 3.675669 32.504358 0.496866
2010-05-21 08:45:49 51°33.23 2°55.858 10.9822 3.673982 32.496225 0.845107
2010-05-21 08:46:50 51°33.236 2°55.876 10.9811 3.673139 32.497097 0.949579
2010-05-21 08:47:49 51°33.241 2°55.89 10.9879 3.673455 32.501622 1.158523
2010-05-21 08:48:49 51°33.246 2°55.903 10.9932 3.673455 32.495271 1.193347
2010-05-21 08:49:49 51°33.25 2°55.914 10.9893 3.671979 32.478629 1.297819
2010-05-21 08:50:49 51°33.255 2°55.925 10.9846 3.671768 32.48008 1.541588
2010-05-21 08:51:49 51°33.259 2°55.934 10.9773 3.67103 32.480575 1.750532
2010-05-21 08:52:49 51°33.263 2°55.944 10.9814 3.671979 32.494856 1.785356
2010-05-21 08:53:49 51°33.268 2°55.954 10.971 3.67219 32.491991 1.855004
2010-05-21 08:54:48 51°33.273 2°55.965 10.9744 3.671768 32.493486 1.924652
2010-05-21 08:55:48 51°33.278 2°55.976 10.9843 3.669237 32.465754 1.785356
2010-05-21 08:56:48 51°33.285 2°55.987 10.984 3.672506 32.493693 1.680884
2010-05-21 08:57:49 51°33.292 2°55.998 10.9931 3.672506 32.486638 1.576412
2010-05-21 08:58:48 51°33.299 2°56.01 11.0088 3.67356 32.492076 1.47194
2010-05-21 08:59:48 51°33.305 2°56.021 11.037 3.67472 32.488677 1.193347
2010-05-21 09:00:49 51°33.311 2°56.032 11.0507 3.676829 32.48475 0.845107
2010-05-21 09:01:48 51°33.317 2°56.044 11.0325 3.677567 32.488483 1.054051
2010-05-21 09:02:48 51°33.324 2°56.055 11.0219 3.676302 32.490134 1.123699
2010-05-21 09:03:48 51°33.331 2°56.067 11.0221 3.674931 32.486522 1.123699
2010-05-21 09:04:48 51°33.339 2°56.081 11.0346 3.675142 32.485777 1.019227
2010-05-21 09:05:48 51°33.346 2°56.093 11.0385 3.676513 32.485163 0.775459
2010-05-21 09:06:48 51°33.354 2°56.105 11.052 3.676723 32.485827 0.740634
2010-05-21 09:07:48 51°33.355 2°56.139 11.0564 3.678411 32.491139 0.70581
2010-05-21 09:08:48 51°33.319 2°56.185 11.0596 3.678094 32.484511 0.70581
2010-05-21 09:09:48 51°33.254 2°56.172 11.072 3.678621 32.484059 0.322746
2010-05-21 09:10:48 51°33.176 2°56.134 11.0492 3.679254 32.482533 0.253098
2010-05-21 09:11:48 51°33.12 2°56.147 11.071 3.677145 32.481522 0.253098
2010-05-21 09:12:48 51°33.101 2°56.196 11.0754 3.67957 32.483529 0.113802
2010-05-21 09:13:48 51°33.103 2°56.246 11.0795 3.679148 32.480794 0.18345
2010-05-21 09:14:48 51°33.109 2°56.285 11.1037 3.679043 32.469913 0.148626
2010-05-21 09:15:48 51°33.114 2°56.316 11.1041 3.679781 32.45959 0.148626
2010-05-21 09:16:48 51°33.118 2°56.342 11.0871 3.679043 32.456561 0.253098
2010-05-21 09:17:48 51°33.124 2°56.365 11.0829 3.678516 32.461925 0.35757
2010-05-21 09:18:48 51°33.131 2°56.384 11.0836 3.677567 32.453312 0.35757
2010-05-21 09:19:48 51°33.138 2°56.4 11.0905 3.677567 32.45542 0.462042
2010-05-21 09:20:48 51°33.145 2°56.415 11.0938 3.676828 32.441852 0.427218
2010-05-21 09:21:48 51°33.152 2°56.429 11.0911 3.676828 32.441149 0.53169
2010-05-21 09:22:48 51°33.159 2°56.441 11.0947 3.675457 32.431206 0.496866
2010-05-21 09:23:48 51°33.166 2°56.452 11.1006 3.675036 32.422153 0.462042
2010-05-21 09:24:48 51°33.172 2°56.462 11.1002 3.675985 32.427957 0.496866
2010-05-21 09:25:48 51°33.179 2°56.471 11.0948 3.675457 32.422081 0.53169
2010-05-21 09:26:48 51°33.185 2°56.479 11.0944 3.674403 32.415242 0.601338
2010-05-21 09:27:48 51°33.192 2°56.487 11.1083 3.67493 32.418311 0.670986
2010-05-21 09:28:48 51°33.198 2°56.495 11.1211 3.675774 32.413962 0.496866
2010-05-21 09:29:48 51°33.204 2°56.502 11.123 3.675879 32.407985 0.427218
2010-05-21 09:30:48 51°33.21 2°56.509 11.1231 3.676301 32.410019 0.35757
2010-05-21 09:31:48 51°33.217 2°56.516 11.1238 3.675879 32.405182 0.392394
2010-05-21 09:32:48 51°33.224 2°56.522 11.1347 3.676195 32.405481 0.35757
2010-05-21 09:33:48 51°33.23 2°56.528 11.1409 3.676406 32.401243 0.392394
2010-05-21 09:34:48 51°33.237 2°56.533 11.1493 3.678515 32.415612 0.35757
2010-05-21 09:35:48 51°33.244 2°56.538 11.1538 3.677566 32.402808 0.322746
2010-05-21 09:36:48 51°33.25 2°56.543 11.1808 3.677882 32.398906 0.322746
2010-05-21 09:37:48 51°33.257 2°56.547 11.2036 3.680307 32.396775 0.18345
2010-05-21 09:38:48 51°33.263 2°56.55 11.2135 3.6821 32.396147 0.113802
2010-05-21 09:39:48 51°33.27 2°56.554 11.2218 3.682732 32.393255 0.148626
2010-05-21 09:40:48 51°33.276 2°56.558 11.2497 3.683259 32.392825 0.113802
2010-05-21 09:41:48 51°33.282 2°56.561 11.2759 3.685579 32.388985 -0.025495
2010-05-21 09:42:49 51°33.288 2°56.564 11.2961 3.687582 32.386248 -0.095143
2010-05-21 09:43:48 51°33.293 2°56.567 11.296 3.689269 32.387396 -0.129967
2010-05-21 09:44:48 51°33.299 2°56.57 11.2905 3.688426 32.383337 -0.095143
2010-05-21 09:45:48 51°33.304 2°56.573 11.2896 3.68832 32.385095 -0.095143
2010-05-21 09:46:48 51°33.309 2°56.576 11.2875 3.687055 32.374825 -0.060319
2010-05-21 09:47:48 51°33.314 2°56.579 11.2993 3.687477 32.378248 -0.095143
2010-05-21 09:48:48 51°33.319 2°56.581 11.2997 3.688848 32.379793 -0.095143
2010-05-21 09:49:48 51°33.323 2°56.583 11.2915 3.68832 32.378127 -0.060319
2010-05-21 09:50:48 51°33.328 2°56.586 11.2887 3.687371 32.377218 -0.060319
2010-05-21 09:51:48 51°33.332 2°56.587 11.279 3.687477 32.377551 -0.095143
2010-05-21 09:52:48 51°33.334 2°56.594 11.2857 3.687372 32.385582 -0.129967
2010-05-21 09:53:48 51°33.324 2°56.613 11.2561 3.686211 32.371462 -0.025495
2010-05-21 09:54:49 51°33.301 2°56.615 11.2011 3.684103 32.377343 0.113802
2010-05-21 09:55:49 51°33.28 2°56.584 11.2354 3.680096 32.374444 -0.095143
2010-05-21 09:56:48 51°33.268 2°56.53 11.2008 3.681678 32.367581 -0.199615
2010-05-21 09:57:49 51°33.251 2°56.454 11.1733 3.678936 32.366584 -0.164791
2010-05-21 09:58:48 51°33.173 2°56.328 11.2317 3.676195 32.364893 -0.095143
2010-05-21 09:59:48 51°33.089 2°56.207 11.2308 3.681888 32.356392 -0.269263
2010-05-21 10:00:48 51°33.087 2°56.112 11.2219 3.682205 32.364366 -0.338911
2010-05-21 10:01:49 51°33.102 2°56.058 11.1796 3.679674 32.361939 -0.234439
2010-05-21 10:02:49 51°33.118 2°56.025 11.1421 3.676933 32.371422 -0.095143
2010-05-21 10:03:49 51°33.133 2°56.001 11.132 3.67398 32.369071 0.044153
2010-05-21 10:04:49 51°33.146 2°55.982 11.1509 3.67377 32.369802 0.113802
2010-05-21 10:05:49 51°33.157 2°55.967 11.166 3.67514 32.36505 0.148626
2010-05-21 10:06:49 51°33.167 2°55.954 11.191 3.6763 32.363829 0.148626
2010-05-21 10:07:49 51°33.176 2°55.943 11.2328 3.678303 32.358996 0.113802
2010-05-21 10:08:49 51°33.183 2°55.932 11.2494 3.681361 32.358907 0.044153
2010-05-21 10:09:49 51°33.189 2°55.92 11.2736 3.682943 32.357638 0.078977
2010-05-21 10:10:49 51°33.195 2°55.91 11.2773 3.685262 32.363584 0.009329
2010-05-21 10:11:49 51°33.198 2°55.898 11.2775 3.685051 32.358041 0.113802
2010-05-21 10:12:49 51°33.201 2°55.887 11.2782 3.685368 32.360434 0.113802
2010-05-21 10:13:49 51°33.203 2°55.875 11.2798 3.685473 32.361464 0.113802
2010-05-21 10:14:49 51°33.205 2°55.864 11.2678 3.68579 32.362465 0.148626
2010-05-21 10:15:49 51°33.206 2°55.854 11.2569 3.68463 32.362279 0.18345
2010-05-21 10:16:49 51°33.207 2°55.845 11.2513 3.68347 32.364883 0.18345
2010-05-21 10:17:49 51°33.208 2°55.834 11.2556 3.683154 32.359699 0.218274
2010-05-21 10:18:49 51°33.209 2°55.824 11.2491 3.683575 32.361034 0.218274
2010-05-21 10:19:49 51°33.209 2°55.815 11.2424 3.682837 32.363578 0.253098
2010-05-21 10:20:49 51°33.209 2°55.806 11.2493 3.682415 32.361547 0.253098
2010-05-21 10:21:49 51°33.209 2°55.797 11.2668 3.68347 32.3607 0.218274
2010-05-21 10:22:49 51°33.209 2°55.788 11.2713 3.684208 32.358158 0.218274
2010-05-21 10:23:49 51°33.21 2°55.78 11.2728 3.684735 32.360523 0.18345
2010-05-21 10:24:49 51°33.21 2°55.772 11.2774 3.685262 32.362887 0.218274
2010-05-21 10:25:49 51°33.21 2°55.765 11.2906 3.686106 32.366251 0.18345
2010-05-21 10:26:49 51°33.208 2°55.758 11.2922 3.686633 32.363044 0.18345
2010-05-21 10:27:49 51°33.207 2°55.75 11.2901 3.686633 32.361651 0.148626
2010-05-21 10:28:48 51°33.207 2°55.742 11.284 3.686528 32.360622 0.148626
2010-05-21 10:29:49 51°33.206 2°55.735 11.2747 3.686106 32.364858 0.18345
2010-05-21 10:30:49 51°33.204 2°55.727 11.2836 3.685684 32.365614 0.253098
2010-05-21 10:31:49 51°33.204 2°55.71 11.2919 3.686211 32.36171 0.218274
2010-05-21 10:32:48 51°33.215 2°55.67 11.4173 3.687371 32.352156 0.078977
2010-05-21 10:33:49 51°33.243 2°55.64 11.3768 3.697177 32.349142 -0.269263
2010-05-21 10:34:49 51°33.277 2°55.643 11.4406 3.694858 32.362622 -0.408559
2010-05-21 10:35:49 51°33.3 2°55.675 11.5164 3.699708 32.352289 -0.478207
2010-05-21 10:36:49 51°33.31 2°55.702 11.4968 3.706034 32.361888 -0.478207
2010-05-21 10:37:49 51°33.315 2°55.722 11.4191 3.704453 32.367275 -0.408559
2010-05-21 10:38:49 51°33.32 2°55.735 11.4207 3.698548 32.370116 -0.373735
2010-05-21 10:39:48 51°33.323 2°55.744 11.4012 3.698021 32.358047 -0.373735
2010-05-21 10:40:49 51°33.325 2°55.748 11.349 3.695912 32.365954 -0.269263
2010-05-21 10:41:48 51°33.326 2°55.748 11.3199 3.692222 32.365407 -0.164791
2010-05-21 10:42:48 51°33.327 2°55.746 11.3249 3.690007 32.366057 -0.164791
2010-05-21 10:43:48 51°33.328 2°55.741 11.3308 3.690218 32.365332 -0.199615
2010-05-21 10:44:48 51°33.328 2°55.734 11.3423 3.690324 32.362188 -0.199615
2010-05-21 10:45:48 51°33.327 2°55.726 11.3384 3.691378 32.363436 -0.199615
2010-05-21 10:46:48 51°33.325 2°55.715 11.3583 3.691378 32.362741 -0.129967
2010-05-21 10:47:48 51°33.323 2°55.704 11.4195 3.693381 32.358651 -0.164791
2010-05-21 10:48:48 51°33.32 2°55.691 11.4454 3.698232 32.3601 -0.199615
2010-05-21 10:49:48 51°33.316 2°55.678 11.4158 3.699602 32.357499 -0.164791
2010-05-21 10:50:48 51°33.312 2°55.664 11.4185 3.697915 32.365343 -0.129967
2010-05-21 10:51:48 51°33.308 2°55.651 11.3677 3.698443 32.366315 -0.164791
2010-05-21 10:52:49 51°33.307 2°55.653 11.3189 3.692854 32.366016 -0.060319
2010-05-21 10:53:48 51°33.323 2°55.709 11.3853 3.688637 32.370074 -0.060319
2010-05-21 10:54:47 51°33.346 2°55.772 11.5449 3.696544 32.344369 -0.269263
2010-05-21 10:55:48 51°33.369 2°55.832 11.5537 3.708249 32.350908 -0.478207
2010-05-21 10:56:49 51°33.395 2°55.89 11.5406 3.707722 32.36099 -0.443383
2010-05-21 10:57:49 51°33.441 2°55.907 11.4863 3.707932 32.34991 -0.513031
2010-05-21 10:58:49 51°33.501 2°55.784 11.5142 3.701711 32.372475 -0.513031
2010-05-21 10:59:49 51°33.494 2°55.483 11.4772 3.706983 32.327584 -0.58268
2010-05-21 11:00:48 51°33.449 2°55.154 11.3819 3.701712 32.390508 -0.478207
2010-05-21 11:01:48 51°33.339 2°54.85 11.244 3.694225 32.373127 -0.443383
2010-05-21 11:02:48 51°33.226 2°54.548 11.265 3.68463 32.382498 -0.478207
2010-05-21 11:03:48 51°33.112 2°54.245 11.4877 3.69064 32.373622 -0.547855
2010-05-21 11:04:47 51°32.971 2°53.966 11.5161 3.703293 32.364306 -0.547855
2010-05-21 11:05:47 51°32.816 2°53.685 11.6668 3.709409 32.387752 -0.547855
2010-05-21 11:06:49 51°32.62 2°53.474 11.2841 3.715524 32.369032 -0.547855
2010-05-21 11:07:49 51°32.401 2°53.361 11.1786 3.687055 32.391556 -0.443383
2010-05-21 11:08:49 51°32.182 2°53.249 11.1846 3.678514 32.365948 -0.373735
2010-05-21 11:09:52 51°31.954 2°53.124 11.1609 3.677882 32.381416 -0.338911
2010-05-21 11:10:51 51°31.74 2°53.004 11.1355 3.676511 32.385474 -0.269263
2010-05-21 11:11:48 51°31.538 2°52.866 11.1516 3.675984 32.387306 -0.304087
2010-05-21 11:12:49 51°31.336 2°52.67 11.1563 3.677355 32.39654 -0.304087
2010-05-21 11:13:49 51°31.148 2°52.488 11.1104 3.67862 32.415244 -0.269263
2010-05-21 11:14:49 51°31.04 2°52.419 11.3402 3.675668 32.417135 -0.338911
2010-05-21 11:15:48 51°31.024 2°52.405 11.393 3.693697 32.342993 -0.547855
2010-05-21 11:16:51 51°31.042 2°52.413 11.2033 3.69528 32.400797 -0.164791
2010-05-21 11:17:49 51°31.055 2°52.413 11.148 3.682732 32.41073 0.009329
2010-05-21 11:18:49 51°31.059 2°52.405 11.1196 3.678093 32.407975 0.009329
2010-05-21 11:19:49 51°31.053 2°52.392 11.1527 3.677039 32.410248 0.078977
2010-05-21 11:20:49 51°31.044 2°52.38 11.145 3.678831 32.404005 0.044153
2010-05-21 11:21:48 51°31.037 2°52.37 11.1489 3.678304 32.407241 0.148626
2010-05-21 11:22:49 51°31.03 2°52.363 11.1436 3.678515 32.403706 0.218274
2010-05-21 11:23:48 51°31.024 2°52.36 11.1366 3.677671 32.403841 0.253098
2010-05-21 11:24:49 51°31.02 2°52.362 11.1093 3.677671 32.414349 0.218274
2010-05-21 11:25:49 51°31.018 2°52.365 11.1389 3.67609 32.409352 0.218274
2010-05-21 11:26:49 51°31.016 2°52.369 11.1289 3.677882 32.406608 0.218274
2010-05-21 11:27:50 51°31.015 2°52.37 11.1204 3.67746 32.408778 0.148626
2010-05-21 11:28:49 51°31.015 2°52.368 11.1038 3.676511 32.40648 0.078977
2010-05-21 11:29:49 51°31.015 2°52.367 11.096 3.674614 32.402584 0.078977
2010-05-21 11:30:48 51°31.016 2°52.367 11.0978 3.674508 32.405756 0.044153
2010-05-21 11:31:48 51°31.017 2°52.366 11.1242 3.675141 32.409859 0.078977
2010-05-21 11:32:48 51°31.017 2°52.365 11.2838 3.676933 32.388207 -0.060319
2010-05-21 11:33:49 51°31.017 2°52.365 11.3311 3.687477 32.365015 -0.164791
2010-05-21 11:34:49 51°31.017 2°52.365 11.457 3.693065 32.361124 -0.234439
2010-05-21 11:35:48 51°31.018 2°52.365 11.5209 3.700657 32.346979 -0.304087
2010-05-21 11:36:48 51°31.018 2°52.366 11.6352 3.706772 32.33865 -0.373735
2010-05-21 11:37:49 51°31.017 2°52.366 11.7149 3.71468 32.317473 -0.408559
2010-05-21 11:38:49 51°31.017 2°52.366 11.6572 3.720691 32.327521 -0.443383
2010-05-21 11:39:48 51°31.017 2°52.365 11.5551 3.717528 32.340219 -0.443383
2010-05-21 11:40:48 51°31.017 2°52.365 11.5864 3.70962 32.3732 -0.373735
2010-05-21 11:41:48 51°31.017 2°52.365 11.674 3.712044 32.325658 -0.408559
2010-05-21 11:42:48 51°31.018 2°52.365 11.7101 3.718266 32.334295 -0.443383
2010-05-21 11:43:48 51°31.018 2°52.365 11.7389 3.719953 32.324505 -0.478207
2010-05-21 11:44:48 51°31.018 2°52.365 11.8079 3.723221 32.316299 -0.513031
2010-05-21 11:45:48 51°31.017 2°52.365 11.7629 3.726912 32.32178 -0.513031
2010-05-21 11:46:48 51°31.018 2°52.365 11.7303 3.724065 32.323761 -0.513031
2010-05-21 11:47:48 51°31.018 2°52.365 11.7478 3.7228 32.332117 -0.513031
2010-05-21 11:48:48 51°31.018 2°52.365 11.7619 3.72396 32.327543 -0.547855
2010-05-21 11:49:48 51°31.017 2°52.366 11.7691 3.724698 32.330558 -0.547855
2010-05-21 11:50:48 51°31.017 2°52.367 11.7679 3.72533 32.325012 -0.547855
2010-05-21 11:51:48 51°31.017 2°52.367 11.7646 3.725752 32.32977 -0.547855
2010-05-21 11:52:48 51°31.017 2°52.368 11.8338 3.726596 32.329689 -0.547855
2010-05-21 11:53:48 51°31.016 2°52.368 11.8652 3.730497 32.320085 -0.547855
2010-05-21 11:54:48 51°31.016 2°52.369 11.9536 3.73345 32.317092 -0.58268
2010-05-21 11:55:48 51°31.017 2°52.369 12.0076 3.740409 32.309699 -0.58268
2010-05-21 11:56:48 51°31.016 2°52.368 12.2028 3.746947 32.292223 -0.58268
2010-05-21 11:57:48 51°31.017 2°52.368 12.2868 3.757702 32.251688 -0.652328
2010-05-21 11:58:49 51°31.016 2°52.369 12.284 3.763396 32.25414 -0.617504
2010-05-21 11:59:48 51°31.016 2°52.368 12.2509 3.76192 32.265663 -0.687152
2010-05-21 12:00:48 51°31.016 2°52.368 12.2654 3.762342 32.26025 -0.652328
2010-05-21 12:01:48 51°31.015 2°52.369 12.3116 3.764451 32.250058 -0.652328
2010-05-21 12:02:49 51°31.016 2°52.37 12.2387 3.765083 32.260132 -0.687152
2010-05-21 12:03:48 51°31.016 2°52.379 11.8062 3.759601 32.307677 -0.547855
2010-05-21 12:04:48 51°31.014 2°52.393 11.8674 3.72744 32.363908 -0.478207
2010-05-21 12:05:48 51°31.01 2°52.404 11.9963 3.732711 32.291549 -0.58268
2010-05-21 12:06:48 51°31.005 2°52.412 12.0808 3.742307 32.281664 -0.617504
2010-05-21 12:07:48 51°31.002 2°52.425 11.951 3.749055 32.275808 -0.617504
2010-05-21 12:08:49 51°30.986 2°52.473 11.8344 3.738406 32.36484 -0.478207
2010-05-21 12:09:48 51°30.915 2°52.533 11.4398 3.73018 32.298578 -0.617504
2010-05-21 12:10:48 51°30.774 2°52.6 11.8142 3.709408 32.309064 -0.58268
2010-05-21 12:11:48 51°30.594 2°52.605 11.9533 3.701603 32.166297 -0.373735
2010-05-21 12:12:48 51°30.405 2°52.649 11.4505 3.707084 32.013214 -0.58268
2010-05-21 12:13:48 51°30.189 2°52.713 11.1973 3.672289 32.047987 -0.443383
2010-05-21 12:14:48 51°29.963 2°52.781 11.1819 3.648988 32.052964 -0.269263
2010-05-21 12:15:48 51°29.737 2°52.851 11.808 3.645823 31.977271 -0.269263
2010-05-21 12:16:49 51°29.508 2°52.921 11.4539 3.682093 31.891719 -0.408559
2010-05-21 12:17:48 51°29.286 2°52.988 11.2564 3.656999 31.947454 -0.338911
2010-05-21 12:18:48 51°29.06 2°53.056 11.2376 3.63802 31.878554 -0.234439
2010-05-21 12:19:48 51°28.833 2°53.124 11.4264 3.631588 31.848091 -0.129967
2010-05-21 12:20:48 51°28.603 2°53.192 12.086 3.642131 31.821477 -0.269263
2010-05-21 12:21:48 51°28.376 2°53.261 11.7196 3.677766 31.607773 -0.338911
2010-05-21 12:22:49 51°28.144 2°53.332 12.0801 3.657734 31.724435 -0.164791
2010-05-21 12:23:49 51°27.916 2°53.386 11.5782 3.666588 31.547369 -0.408559
2010-05-21 12:24:49 51°27.68 2°53.39 11.6618 3.638754 31.616023 -0.129967
2010-05-21 12:25:48 51°27.449 2°53.393 11.6004 3.633375 31.454942 -0.199615
2010-05-21 12:26:48 51°27.215 2°53.393 11.8172 3.621356 31.462789 -0.164791
2010-05-21 12:27:48 51°26.979 2°53.394 12.0395 3.632214 31.338128 -0.129967
2010-05-21 12:28:48 51°26.744 2°53.397 12.0196 3.642019 31.324987 -0.164791
2010-05-21 12:29:48 51°26.51 2°53.401 12.5343 3.640227 31.336872 -0.060319
2010-05-21 12:30:48 51°26.277 2°53.409 11.9493 3.672699 31.225854 -0.304087
2010-05-21 12:31:49 51°26.041 2°53.418 11.7897 3.633268 31.321109 -0.025495
2010-05-21 12:32:48 51°25.812 2°53.426 12.1332 3.616081 31.249515 -0.025495
2010-05-21 12:33:48 51°25.579 2°53.435 11.9126 3.638221 31.160863 -0.025495
2010-05-21 12:34:49 51°25.34 2°53.442 12.4293 3.621984 31.16306 0.113802
2010-05-21 12:35:48 51°25.108 2°53.451 12.6147 3.646127 31.060557 0.113802
2010-05-21 12:36:48 51°24.873 2°53.454 12.4875 3.65941 30.968643 -0.025495
2010-05-21 12:37:47 51°24.639 2°53.454 12.2606 3.644861 30.995046 0.148626
2010-05-21 12:38:47 51°24.401 2°53.457 12.0705 3.631787 30.963496 0.18345
2010-05-21 12:39:47 51°24.163 2°53.459 12.1781 3.615761 30.966644 0.670986
2010-05-21 12:40:48 51°23.924 2°53.483 12.2256 3.618923 30.902849 0.287922
2010-05-21 12:41:49 51°23.684 2°53.515 12.3847 3.625355 30.968408 0.253098
2010-05-21 12:42:49 51°23.448 2°53.549 15.399 3.6437 30.89683 0.18345
2010-05-21 12:43:48 51°23.215 2°53.583 12.7203 3.852707 31.527328 0.18345
2010-05-21 12:44:49 51°22.974 2°53.615 12.4767 3.666792 31.074653 0.496866
2010-05-21 12:45:49 51°22.736 2°53.648 12.567 3.646969 30.974451 0.496866
2010-05-21 12:46:48 51°22.504 2°53.675 12.9158 3.642012 30.845814 0.287922
2010-05-21 12:47:48 51°22.272 2°53.707 12.9518 3.659618 30.717756 0.044153
2010-05-21 12:48:48 51°22.038 2°53.738 12.8142 3.654979 30.743651 0.148626
2010-05-21 12:49:48 51°21.804 2°53.748 13.0626 3.644644 30.615698 0.078977
2010-05-21 12:50:48 51°21.584 2°53.599 12.7855 3.633889 30.508463 1.262995
2010-05-21 12:51:49 51°21.381 2°53.371 12.5403 3.601308 30.350204 1.680884
2010-05-21 12:52:48 51°21.181 2°53.156 12.5533 3.582964 30.324027 1.715708
2010-05-21 12:53:48 51°20.975 2°52.941 12.7658 3.579379 30.269667 1.228171
2010-05-21 12:54:48 51°20.769 2°52.728 12.803 3.596773 30.233735 1.019227
2010-05-21 12:55:48 51°20.561 2°52.517 13.0341 3.597933 30.226572 0.914755
2010-05-21 12:56:48 51°20.344 2°52.339 12.8178 3.608687 30.236408 0.879931
2010-05-21 12:57:48 51°20.109 2°52.284 13.0703 3.591712 30.184639 0.566514
2010-05-21 12:58:48 51°19.87 2°52.263 13.2094 3.614274 30.172504 0.287922
2010-05-21 12:59:48 51°19.632 2°52.227 13.0709 3.618807 30.181381 0.496866
2010-05-21 13:00:48 51°19.393 2°52.189 12.8327 3.603414 30.167007 1.019227
2010-05-21 13:01:48 51°19.153 2°52.163 12.8849 3.592133 30.15516 1.297819
2010-05-21 13:02:48 51°18.913 2°52.155 12.7288 3.590657 30.149433 1.541588
2010-05-21 13:03:48 51°18.672 2°52.144 13.0638 3.576742 30.162602 1.64606
2010-05-21 13:04:48 51°18.43 2°52.133 13.061 3.600883 30.077764 0.670986
2010-05-21 13:05:48 51°18.188 2°52.126 13.0487 3.611638 30.185539 1.123699
2010-05-21 13:06:48 51°17.946 2°52.12 13.0729 3.625557 30.339506 1.158523
2010-05-21 13:07:48 51°17.703 2°52.112 13.2962 3.656452 30.555826 1.402292
2010-05-21 13:08:48 51°17.459 2°52.112 13.0948 3.674799 30.624094 1.959476
2010-05-21 13:09:48 51°17.217 2°52.115 13.0339 3.675117 30.764268 2.621133
2010-05-21 13:10:48 51°16.976 2°52.131 12.9146 3.675435 30.81305 2.969374
2010-05-21 13:11:48 51°16.774 2°52.288 12.9051 3.673538 30.877313 3.213142
2010-05-21 13:12:48 51°16.576 2°52.46 12.8603 3.673432 30.884548 3.561383
2010-05-21 13:13:48 51°16.385 2°52.613 12.8695 3.669953 30.893161 3.909623
2010-05-21 13:14:48 51°16.215 2°52.778 12.9969 3.669953 30.86341 3.352439
2010-05-21 13:15:48 51°16.075 2°52.969 13.0358 3.678809 30.845125 2.725606
2010-05-21 13:16:48 51°15.946 2°53.156 13.1056 3.66626 30.688125 2.481837
2010-05-21 13:17:48 51°15.816 2°53.338 13.0406 3.654871 30.565395 2.447013
2010-05-21 13:18:48 51°15.692 2°53.52 13.015 3.663624 30.698016 2.377365
2010-05-21 13:19:48 51°15.571 2°53.713 13.0183 3.664362 30.718681 2.203245
2010-05-21 13:20:48 51°15.43 2°53.878 13.0757 3.662675 30.691058 2.516661
2010-05-21 13:21:48 51°15.29 2°54.046 13.2018 3.660143 30.610654 2.133597
2010-05-21 13:22:49 51°15.147 2°54.216 13.1915 3.654131 30.468582 1.889828
2010-05-21 13:23:48 51°15.009 2°54.383 13.1574 3.647594 30.435202 2.203245
2010-05-21 13:24:48 51°14.874 2°54.56 13.2067 3.6419 30.386127 2.412189
2010-05-21 13:25:48 51°14.732 2°54.724 13.2385 3.63863 30.322561 3.317614
2010-05-21 13:26:48 51°14.597 2°54.911 13.3699 3.637364 30.276444 3.387263
2010-05-21 13:27:48 51°14.468 2°55.108 13.4872 3.6342 30.148852 3.178318
2010-05-21 13:28:48 51°14.322 2°55.275 13.8344 0.101585 0.651283 -0.791624
2010-05-21 13:29:48 51°14.176 2°55.383 13.9059 0.062458 0.392784 -0.861272
2010-05-21 13:30:52 51°14.051 2°55.469 13.9406 0.053928 0.33713 -0.861272
2010-05-21 13:31:52 51°13.928 2°55.554 14.0103 0.049142 0.305531 -0.861272
2010-05-21 13:32:52 51°13.819 2°55.63 14.071 0.04623 0.286484 -0.861272
2010-05-21 13:33:52 51°13.744 2°55.726 14.2076 0.045294 0.280337 -0.896096
2010-05-21 13:34:52 51°13.699 2°55.829 14.2971 0.043317 0.267558 -0.861272
2010-05-21 13:35:52 51°13.671 2°55.92 14.4143 0.042693 0.263457 -0.861272
2010-05-21 13:36:52 51°13.662 2°55.96 14.5258 0.042901 0.264611 -0.896096